createdAt,value
2023-01-11T00:01:00.910Z,20.61
2023-01-11T00:03:30.020Z,20.60
2023-01-11T00:05:57.877Z,20.56
2023-01-11T00:08:25.841Z,20.60
2023-01-11T00:10:53.283Z,20.57
2023-01-11T00:13:19.899Z,20.58
2023-01-11T00:15:46.522Z,20.58
2023-01-11T00:18:13.189Z,20.55
2023-01-11T00:20:40.803Z,20.57
2023-01-11T00:23:08.115Z,20.57
2023-01-11T00:25:35.475Z,20.56
2023-01-11T00:28:02.066Z,20.55
2023-01-11T00:30:28.661Z,20.56
2023-01-11T00:32:59.359Z,20.54
2023-01-11T00:35:27.010Z,20.55
2023-01-11T00:37:54.491Z,20.55
2023-01-11T00:40:21.754Z,20.54
2023-01-11T00:43:06.742Z,20.54
2023-01-11T00:45:52.162Z,20.49
2023-01-11T00:48:18.811Z,20.51
2023-01-11T00:50:45.352Z,20.52
2023-01-11T00:53:11.974Z,20.52
2023-01-11T00:55:38.660Z,20.53
2023-01-11T00:58:05.534Z,20.52
2023-01-11T01:00:32.533Z,20.51
2023-01-11T01:02:59.214Z,20.51
2023-01-11T01:05:25.898Z,20.51
2023-01-11T01:07:52.924Z,20.51
2023-01-11T01:10:29.405Z,20.51
2023-01-11T01:13:14.334Z,20.45
2023-01-11T01:15:41.067Z,20.51
2023-01-11T01:18:09.252Z,20.50
2023-01-11T01:20:35.924Z,20.49
2023-01-11T01:23:02.452Z,20.49
2023-01-11T01:25:29.384Z,20.50
2023-01-11T01:27:56.026Z,20.50
2023-01-11T01:30:22.662Z,20.50
2023-01-11T01:32:49.810Z,20.47
2023-01-11T01:35:16.441Z,20.48
2023-01-11T01:37:44.867Z,20.45
2023-01-11T01:40:12.116Z,20.48
2023-01-11T01:42:38.764Z,20.48
2023-01-11T01:45:24.521Z,20.48
2023-01-11T01:48:00.330Z,20.46
2023-01-11T01:50:32.059Z,20.45
2023-01-11T01:53:10.307Z,20.46
2023-01-11T01:55:40.608Z,20.45
2023-01-11T01:58:10.596Z,20.45
2023-01-11T02:00:41.365Z,20.43
2023-01-11T02:03:09.415Z,20.44
2023-01-11T02:05:36.020Z,20.43
2023-01-11T02:08:05.440Z,20.43
2023-01-11T02:10:32.625Z,20.42
2023-01-11T02:13:05.448Z,20.42
2023-01-11T02:15:32.815Z,20.42
2023-01-11T02:17:59.354Z,20.40
2023-01-11T02:20:37.757Z,20.42
2023-01-11T02:23:41.168Z,20.42
2023-01-11T02:27:15.579Z,20.35
2023-01-11T02:29:54.343Z,20.41
2023-01-11T02:32:39.824Z,20.40
2023-01-11T02:35:34.955Z,20.40
2023-01-11T02:38:14.381Z,20.40
2023-01-11T02:40:52.565Z,20.39
2023-01-11T02:43:45.369Z,20.40
2023-01-11T02:46:18.164Z,20.39
2023-01-11T02:48:59.907Z,20.38
2023-01-11T02:51:34.102Z,20.36
2023-01-11T02:54:09.024Z,20.35
2023-01-11T02:56:39.296Z,20.36
2023-01-11T02:59:09.368Z,20.35
2023-01-11T03:01:51.584Z,20.35
2023-01-11T03:04:33.671Z,20.35
2023-01-11T03:07:46.093Z,20.33
2023-01-11T03:10:54.773Z,20.35
2023-01-11T03:13:24.176Z,20.36
2023-01-11T03:16:08.748Z,20.32
2023-01-11T03:18:44.337Z,20.34
2023-01-11T03:21:33.423Z,20.34
2023-01-11T03:24:05.732Z,20.31
2023-01-11T03:26:54.633Z,20.32
2023-01-11T03:29:33.422Z,20.31
2023-01-11T03:32:18.517Z,20.32
2023-01-11T03:35:10.903Z,20.31
2023-01-11T03:37:41.467Z,20.31
2023-01-11T03:40:18.206Z,20.30
2023-01-11T03:43:06.356Z,20.26
2023-01-11T03:45:36.061Z,20.29
2023-01-11T03:48:05.130Z,20.30
2023-01-11T03:50:33.494Z,20.30
2023-01-11T03:53:01.921Z,20.29
2023-01-11T03:55:30.437Z,20.30
2023-01-11T03:57:59.932Z,20.29
2023-01-11T04:00:27.995Z,20.29
2023-01-11T04:02:54.540Z,20.29
2023-01-11T04:05:22.097Z,20.28
2023-01-11T04:07:48.683Z,20.29
2023-01-11T04:10:15.528Z,20.29
2023-01-11T04:12:42.717Z,20.28
2023-01-11T04:15:10.157Z,20.29
2023-01-11T04:17:36.724Z,20.27
2023-01-11T04:20:03.382Z,20.24
2023-01-11T04:22:30.128Z,20.25
2023-01-11T04:24:56.740Z,20.27
2023-01-11T04:27:23.999Z,20.27
2023-01-11T04:29:50.551Z,20.27
2023-01-11T04:32:17.118Z,20.26
2023-01-11T04:34:44.446Z,20.26
2023-01-11T04:37:12.010Z,20.20
2023-01-11T04:39:38.962Z,20.19
2023-01-11T04:42:34.678Z,20.23
2023-01-11T04:45:01.448Z,20.24
2023-01-11T04:47:28.156Z,20.25
2023-01-11T04:49:54.749Z,20.24
2023-01-11T04:52:21.630Z,20.23
2023-01-11T04:54:48.787Z,20.20
2023-01-11T04:57:16.920Z,20.15
2023-01-11T04:59:43.529Z,20.22
2023-01-11T05:02:13.675Z,20.19
2023-01-11T05:04:41.314Z,20.23
2023-01-11T05:07:08.768Z,20.22
2023-01-11T05:09:35.552Z,20.16
2023-01-11T05:12:02.886Z,20.21
2023-01-11T05:14:29.503Z,20.20
2023-01-11T05:16:56.028Z,20.16
2023-01-11T05:19:22.879Z,20.20
2023-01-11T05:21:50.407Z,20.20
2023-01-11T05:24:17.106Z,20.19
2023-01-11T05:26:45.445Z,20.19
2023-01-11T05:29:16.147Z,20.19
2023-01-11T05:31:43.058Z,20.18
2023-01-11T05:34:12.346Z,20.18
2023-01-11T05:36:40.149Z,20.19
2023-01-11T05:39:06.787Z,20.15
2023-01-11T05:41:34.008Z,20.19
2023-01-11T05:44:19.244Z,20.19
2023-01-11T05:46:45.963Z,20.17
2023-01-11T05:49:13.714Z,20.15
2023-01-11T05:51:41.516Z,20.19
2023-01-11T05:54:12.312Z,20.18
2023-01-11T05:56:39.477Z,20.16
2023-01-11T05:59:06.129Z,20.17
2023-01-11T06:01:33.051Z,20.18
2023-01-11T06:03:59.626Z,20.17
2023-01-11T06:06:26.383Z,20.18
2023-01-11T06:08:52.973Z,20.18
2023-01-11T06:11:19.605Z,20.14
2023-01-11T06:13:46.591Z,20.19
2023-01-11T06:16:15.865Z,20.19
2023-01-11T06:18:45.534Z,20.18
2023-01-11T06:21:13.245Z,20.20
2023-01-11T06:23:42.576Z,20.19
2023-01-11T06:26:11.609Z,20.20
2023-01-11T06:28:38.441Z,20.22
2023-01-11T06:31:05.942Z,20.21
2023-01-11T06:33:32.816Z,20.24
2023-01-11T06:36:03.677Z,20.26
2023-01-11T06:38:30.237Z,20.26
2023-01-11T06:41:00.382Z,20.27
2023-01-11T06:43:28.922Z,20.29
2023-01-11T06:45:55.749Z,20.30
2023-01-11T06:48:23.189Z,20.29
2023-01-11T06:50:51.044Z,20.25
2023-01-11T06:53:18.014Z,20.24
2023-01-11T06:55:45.251Z,20.30
2023-01-11T06:58:11.945Z,20.34
2023-01-11T07:00:38.683Z,20.32
2023-01-11T07:03:06.908Z,20.40
2023-01-11T07:05:34.704Z,20.43
2023-01-11T07:08:01.478Z,20.44
2023-01-11T07:10:28.165Z,20.50
2023-01-11T07:12:55.064Z,20.51
2023-01-11T07:15:23.310Z,20.56
2023-01-11T07:17:56.933Z,20.59
2023-01-11T07:20:24.458Z,20.64
2023-01-11T07:22:51.480Z,20.71
2023-01-11T07:25:18.635Z,20.78
2023-01-11T07:27:45.515Z,20.89
2023-01-11T07:30:12.465Z,20.96
2023-01-11T07:32:39.312Z,21.03
2023-01-11T07:35:07.065Z,21.08
2023-01-11T07:37:34.161Z,21.15
2023-01-11T07:40:01.109Z,21.21
2023-01-11T07:42:46.071Z,21.28
2023-01-11T07:45:12.784Z,21.32
2023-01-11T07:47:39.365Z,21.37
2023-01-11T07:50:06.769Z,21.43
2023-01-11T07:52:33.366Z,21.45
2023-01-11T07:55:02.630Z,21.54
2023-01-11T07:57:30.348Z,21.62
2023-01-11T07:59:57.001Z,21.69
2023-01-11T08:02:24.059Z,21.75
2023-01-11T08:04:50.896Z,21.80
2023-01-11T08:07:17.444Z,21.86
2023-01-11T08:09:44.989Z,21.92
2023-01-11T08:12:37.890Z,21.92
2023-01-11T08:15:05.065Z,22.03
2023-01-11T08:17:33.843Z,22.11
2023-01-11T08:20:00.483Z,22.16
2023-01-11T08:22:27.036Z,22.22
2023-01-11T08:24:53.673Z,22.28
2023-01-11T08:27:20.274Z,22.36
2023-01-11T08:29:46.923Z,22.41
2023-01-11T08:32:13.451Z,22.45
2023-01-11T08:34:41.208Z,22.47
2023-01-11T08:37:07.768Z,22.52
2023-01-11T08:39:34.601Z,22.58
2023-01-11T08:42:03.131Z,22.61
2023-01-11T08:44:34.039Z,22.67
2023-01-11T08:47:02.543Z,22.72
2023-01-11T08:49:30.409Z,22.83
2023-01-11T08:51:57.126Z,22.91
2023-01-11T08:54:24.776Z,22.99
2023-01-11T08:56:51.390Z,23.11
2023-01-11T08:59:19.949Z,23.16
2023-01-11T09:01:47.203Z,23.24
2023-01-11T09:04:24.157Z,23.30
2023-01-11T09:06:53.037Z,23.35
2023-01-11T09:09:19.912Z,23.43
2023-01-11T09:11:56.472Z,23.50
2023-01-11T09:14:24.801Z,23.57
2023-01-11T09:16:52.057Z,23.60
2023-01-11T09:19:20.044Z,23.65
2023-01-11T09:21:46.815Z,23.68
2023-01-11T09:24:13.725Z,23.73
2023-01-11T09:26:43.256Z,23.75
2023-01-11T09:29:11.082Z,23.79
2023-01-11T09:31:37.813Z,23.83
2023-01-11T09:34:05.405Z,23.81
2023-01-11T09:36:33.510Z,23.89
2023-01-11T09:39:02.130Z,23.99
2023-01-11T09:41:40.979Z,24.14
2023-01-11T09:44:16.162Z,24.23
2023-01-11T09:46:50.077Z,24.32
2023-01-11T09:49:20.205Z,24.39
2023-01-11T09:51:47.653Z,24.48
2023-01-11T09:54:19.147Z,24.55
2023-01-11T09:56:53.844Z,24.61
2023-01-11T09:59:34.646Z,24.68
2023-01-11T10:02:19.518Z,24.72
2023-01-11T10:05:10.045Z,24.77
2023-01-11T10:18:31.574Z,24.98
2023-01-11T10:19:41.291Z,25.06
2023-01-11T10:22:15.665Z,25.11
2023-01-11T10:24:52.875Z,25.12
2023-01-11T10:27:40.348Z,25.19
2023-01-11T10:30:53.691Z,25.22
2023-01-11T10:33:52.467Z,25.29
2023-01-11T10:36:32.861Z,25.32
2023-01-11T10:39:16.043Z,25.36
2023-01-11T10:41:57.091Z,25.38
2023-01-11T10:44:57.689Z,25.42
2023-01-11T10:47:29.228Z,25.44
2023-01-11T10:50:05.058Z,25.45
2023-01-11T10:52:41.417Z,25.54
2023-01-11T10:55:16.848Z,25.58
2023-01-11T10:58:01.732Z,25.57
2023-01-11T11:00:36.079Z,25.66
2023-01-11T11:03:26.264Z,25.68
2023-01-11T11:06:00.416Z,25.72
2023-01-11T11:08:42.582Z,25.70
2023-01-11T11:11:15.683Z,25.78
2023-01-11T11:14:10.373Z,25.80
2023-01-11T11:16:49.251Z,25.81
2023-01-11T11:19:17.604Z,25.81
2023-01-11T11:21:44.367Z,25.87
2023-01-11T11:24:23.241Z,25.89
2023-01-11T11:26:57.267Z,25.90
2023-01-11T11:29:30.398Z,25.92
2023-01-11T11:31:59.109Z,25.95
2023-01-11T11:34:27.387Z,25.98
2023-01-11T11:36:55.268Z,26.00
2023-01-11T11:39:25.678Z,26.05
2023-01-11T11:41:58.343Z,26.08
2023-01-11T11:44:28.567Z,26.14
2023-01-11T11:46:58.801Z,26.18
2023-01-11T11:49:25.604Z,26.22
2023-01-11T11:51:52.648Z,26.25
2023-01-11T11:54:34.364Z,26.29
2023-01-11T11:57:20.942Z,26.31
2023-01-11T11:59:49.419Z,26.32
2023-01-11T12:02:45.162Z,26.37
2023-01-11T12:05:12.246Z,26.40
2023-01-11T12:07:54.930Z,26.42
2023-01-11T12:10:27.269Z,26.40
2023-01-11T12:13:02.060Z,26.49
2023-01-11T12:15:31.044Z,26.51
2023-01-11T12:18:16.699Z,26.52
2023-01-11T12:20:44.697Z,26.54
2023-01-11T12:23:24.971Z,26.59
2023-01-11T12:26:10.322Z,26.64
2023-01-11T12:28:52.022Z,26.67
2023-01-11T12:31:24.776Z,26.69
2023-01-11T12:34:13.579Z,26.71
2023-01-11T12:36:51.255Z,26.72
2023-01-11T12:39:30.679Z,26.78
2023-01-11T12:42:35.302Z,26.82
2023-01-11T12:45:11.043Z,26.86
2023-01-11T12:47:59.369Z,26.87
2023-01-11T12:51:03.335Z,26.89
2023-01-11T12:53:50.947Z,26.94
2023-01-11T12:56:45.520Z,26.97
2023-01-11T12:59:24.681Z,26.96
2023-01-11T13:01:57.238Z,26.89
2023-01-11T13:04:41.084Z,26.87
2023-01-11T13:07:25.963Z,26.86
2023-01-11T13:10:17.024Z,26.88
2023-01-11T13:13:37.345Z,26.89
2023-01-11T13:16:15.254Z,26.92
2023-01-11T13:18:48.726Z,26.95
2023-01-11T13:21:35.137Z,26.87
2023-01-11T13:24:14.583Z,26.99
2023-01-11T13:26:44.847Z,27.04
2023-01-11T13:29:16.734Z,27.08
2023-01-11T13:31:44.747Z,27.06
2023-01-11T13:34:22.282Z,27.12
2023-01-11T13:36:54.528Z,27.17
2023-01-11T13:39:28.471Z,27.18
2023-01-11T13:41:58.273Z,27.21
2023-01-11T13:44:28.177Z,27.24
2023-01-11T13:47:39.886Z,27.24
2023-01-11T13:50:20.836Z,27.26
2023-01-11T13:53:10.022Z,27.29
2023-01-11T13:55:39.674Z,27.32
2023-01-11T13:58:14.572Z,27.31
2023-01-11T14:00:45.922Z,27.36
2023-01-11T14:03:18.618Z,27.40
2023-01-11T14:06:02.768Z,27.41
2023-01-11T14:08:45.056Z,27.42
2023-01-11T14:11:23.307Z,27.45
2023-01-11T14:14:15.700Z,27.47
2023-01-11T14:16:54.439Z,27.50
2023-01-11T14:19:34.724Z,27.51
2023-01-11T14:22:19.744Z,27.54
2023-01-11T14:25:15.338Z,27.56
2023-01-11T14:27:48.359Z,27.58
2023-01-11T14:30:40.085Z,27.58
2023-01-11T14:33:06.608Z,27.60
2023-01-11T14:35:57.874Z,27.56
2023-01-11T14:38:27.408Z,27.58
2023-01-11T14:41:22.746Z,27.58
2023-01-11T14:43:55.450Z,27.63
2023-01-11T14:46:44.153Z,27.66
2023-01-11T14:49:42.956Z,27.67
2023-01-11T14:52:14.817Z,27.56
2023-01-11T14:54:45.148Z,27.41
2023-01-11T14:57:38.117Z,27.24
2023-01-11T15:00:24.696Z,27.09
2023-01-11T15:03:12.160Z,26.92
2023-01-11T15:05:46.630Z,26.83
2023-01-11T15:08:13.194Z,26.78
2023-01-11T15:10:50.606Z,26.70
2023-01-11T15:13:27.084Z,26.67
2023-01-11T15:16:25.568Z,26.64
2023-01-11T15:18:53.407Z,26.58
2023-01-11T15:21:23.283Z,26.62
2023-01-11T15:23:55.618Z,26.72
2023-01-11T15:26:24.506Z,26.81
2023-01-11T15:28:57.236Z,26.90
2023-01-11T15:31:36.616Z,26.96
2023-01-11T15:34:17.356Z,27.09
2023-01-11T15:37:16.600Z,27.19
2023-01-11T15:39:54.644Z,27.30
2023-01-11T15:42:45.627Z,27.36
2023-01-11T15:45:27.548Z,27.43
2023-01-11T15:48:13.112Z,27.48
2023-01-11T15:50:54.819Z,27.53
2023-01-11T15:53:42.943Z,27.56
2023-01-11T15:56:42.871Z,27.61
2023-01-11T15:59:23.786Z,27.63
2023-01-11T16:02:02.418Z,27.69
2023-01-11T16:04:36.687Z,27.75
2023-01-11T16:07:40.790Z,27.80
2023-01-11T16:10:31.739Z,27.86
2023-01-11T16:13:06.311Z,27.84
2023-01-11T16:16:14.928Z,27.83
2023-01-11T16:18:48.217Z,27.84
2023-01-11T16:21:21.298Z,27.84
2023-01-11T16:23:48.963Z,27.85
2023-01-11T16:26:20.147Z,27.80
2023-01-11T16:28:52.840Z,27.85
2023-01-11T16:31:20.377Z,27.85
2023-01-11T16:33:49.558Z,27.84
2023-01-11T16:36:21.164Z,27.83
2023-01-11T16:39:01.581Z,27.83
2023-01-11T16:41:39.787Z,27.81
2023-01-11T16:44:09.210Z,27.78
2023-01-11T16:47:08.966Z,27.75
2023-01-11T16:49:35.829Z,27.73
2023-01-11T16:52:28.105Z,27.70
2023-01-11T16:54:56.204Z,27.64
2023-01-11T16:57:28.340Z,27.63
2023-01-11T17:00:07.055Z,27.53
2023-01-11T17:02:39.389Z,27.32
2023-01-11T17:05:21.002Z,27.12
2023-01-11T17:07:47.972Z,27.08
2023-01-11T17:10:16.050Z,27.10
2023-01-11T17:12:49.368Z,27.14
2023-01-11T17:15:46.598Z,27.20
2023-01-11T17:18:13.445Z,27.25
2023-01-11T17:20:40.861Z,27.28
2023-01-11T17:23:07.612Z,27.31
2023-01-11T17:25:44.259Z,27.32
2023-01-11T17:28:19.241Z,27.33
2023-01-11T17:30:48.136Z,27.26
2023-01-11T17:33:33.081Z,27.33
2023-01-11T17:36:00.199Z,27.30
2023-01-11T17:38:27.663Z,27.30
2023-01-11T17:40:58.672Z,27.28
2023-01-11T17:43:48.039Z,27.28
2023-01-11T17:46:20.551Z,27.22
2023-01-11T17:48:56.496Z,27.21
2023-01-11T17:51:23.814Z,27.20
2023-01-11T17:53:51.606Z,27.22
2023-01-11T17:56:54.488Z,27.22
2023-01-11T17:59:24.094Z,27.22
2023-01-11T18:01:54.094Z,27.18
2023-01-11T18:04:22.835Z,27.19
2023-01-11T18:06:53.977Z,27.18
2023-01-11T18:09:29.374Z,27.17
2023-01-11T18:12:12.106Z,27.14
2023-01-11T18:14:41.307Z,27.13
2023-01-11T18:17:35.115Z,27.05
2023-01-11T18:20:21.746Z,26.98
2023-01-11T18:22:54.295Z,26.96
2023-01-11T18:25:26.199Z,26.85
2023-01-11T18:28:11.898Z,26.91
2023-01-11T18:30:45.808Z,26.89
2023-01-11T18:33:20.008Z,26.87
2023-01-11T18:35:50.021Z,26.87
2023-01-11T18:38:23.634Z,26.85
2023-01-11T18:40:52.008Z,26.84
2023-01-11T18:43:26.375Z,26.85
2023-01-11T18:45:54.913Z,26.85
2023-01-11T18:48:21.967Z,26.85
2023-01-11T18:50:49.366Z,26.84
2023-01-11T18:53:16.570Z,26.84
2023-01-11T18:55:44.716Z,26.85
2023-01-11T18:58:11.783Z,26.86
2023-01-11T19:00:38.528Z,26.85
2023-01-11T19:03:05.529Z,26.85
2023-01-11T19:05:32.271Z,26.84
2023-01-11T19:07:59.301Z,26.83
2023-01-11T19:10:26.731Z,26.83
2023-01-11T19:12:53.393Z,26.81
2023-01-11T19:15:20.058Z,26.79
2023-01-11T19:17:46.705Z,26.78
2023-01-11T19:20:14.131Z,26.71
2023-01-11T19:22:40.939Z,26.76
2023-01-11T19:25:09.493Z,26.74
2023-01-11T19:27:37.225Z,26.73
2023-01-11T19:30:05.523Z,26.71
2023-01-11T19:32:32.133Z,26.65
2023-01-11T19:34:59.598Z,26.69
2023-01-11T19:37:27.421Z,26.66
2023-01-11T19:39:54.114Z,26.66
2023-01-11T19:42:23.746Z,26.64
2023-01-11T19:44:51.517Z,26.58
2023-01-11T19:47:18.412Z,26.60
2023-01-11T19:49:45.083Z,26.58
2023-01-11T19:52:14.319Z,26.56
2023-01-11T19:54:45.045Z,26.57
2023-01-11T19:57:14.688Z,26.56
2023-01-11T19:59:41.992Z,26.49
2023-01-11T20:02:11.141Z,26.54
2023-01-11T20:04:37.673Z,26.51
2023-01-11T20:07:04.895Z,26.50
2023-01-11T20:09:31.964Z,26.49
2023-01-11T20:11:58.909Z,26.49
2023-01-11T20:14:25.788Z,26.46
2023-01-11T20:16:52.449Z,26.44
2023-01-11T20:19:19.006Z,26.44
2023-01-11T20:21:45.644Z,26.46
2023-01-11T20:24:13.492Z,26.43
2023-01-11T20:26:40.936Z,26.41
2023-01-11T20:29:07.796Z,26.39
2023-01-11T20:31:35.532Z,26.38
2023-01-11T20:34:09.919Z,26.37
2023-01-11T20:36:36.623Z,26.35
2023-01-11T20:39:04.301Z,26.35
2023-01-11T20:41:49.936Z,26.36
2023-01-11T20:44:19.234Z,26.36
2023-01-11T20:46:48.156Z,26.37
2023-01-11T20:49:15.955Z,26.37
2023-01-11T20:51:43.638Z,26.35
2023-01-11T20:54:10.962Z,26.33
2023-01-11T20:56:38.586Z,26.24
2023-01-11T20:59:06.928Z,26.31
2023-01-11T21:01:33.554Z,26.30
2023-01-11T21:04:03.465Z,26.22
2023-01-11T21:06:31.321Z,26.32
2023-01-11T21:08:59.861Z,26.35
2023-01-11T21:11:27.633Z,26.35
2023-01-11T21:13:55.753Z,26.46
2023-01-11T21:16:24.507Z,26.51
2023-01-11T21:19:05.211Z,26.52
2023-01-11T21:21:33.553Z,26.56
2023-01-11T21:24:02.361Z,26.56
2023-01-11T21:26:30.637Z,26.54
2023-01-11T21:28:59.563Z,26.45
2023-01-11T21:31:32.112Z,26.42
2023-01-11T21:33:59.835Z,26.39
2023-01-11T21:36:27.599Z,26.34
2023-01-11T21:38:55.471Z,26.33
2023-01-11T21:41:45.699Z,26.31
2023-01-11T21:44:13.154Z,26.29
2023-01-11T21:46:40.162Z,26.28
2023-01-11T21:49:07.206Z,26.25
2023-01-11T21:51:34.578Z,26.22
2023-01-11T21:54:07.120Z,26.23
2023-01-11T21:56:33.897Z,26.23
2023-01-11T21:59:00.565Z,26.25
2023-01-11T22:01:27.705Z,26.27
2023-01-11T22:03:54.260Z,26.26
2023-01-11T22:06:20.945Z,26.27
2023-01-11T22:08:47.761Z,26.28
2023-01-11T22:11:15.331Z,26.28
2023-01-11T22:13:42.767Z,26.29
2023-01-11T22:16:12.832Z,26.28
2023-01-11T22:18:41.178Z,26.26
2023-01-11T22:21:17.393Z,26.25
2023-01-11T22:23:45.275Z,26.23
2023-01-11T22:26:13.936Z,26.21
2023-01-11T22:28:59.987Z,26.20
2023-01-11T22:31:27.890Z,26.19
2023-01-11T22:33:55.315Z,26.18
2023-01-11T22:36:23.886Z,26.17
2023-01-11T22:38:51.295Z,26.10
2023-01-11T22:41:18.329Z,26.17
2023-01-11T22:43:45.706Z,26.14
2023-01-11T22:46:15.134Z,26.14
2023-01-11T22:48:41.779Z,26.09
2023-01-11T22:51:09.597Z,26.10
2023-01-11T22:53:40.196Z,26.08
2023-01-11T22:56:08.505Z,26.07
2023-01-11T22:58:36.056Z,26.07
2023-01-11T23:01:19.121Z,26.06
2023-01-11T23:03:45.977Z,26.05
2023-01-11T23:06:15.966Z,26.00
2023-01-11T23:08:43.287Z,26.05
2023-01-11T23:11:12.481Z,26.04
2023-01-11T23:14:01.863Z,26.02
2023-01-11T23:16:28.664Z,26.01
2023-01-11T23:18:55.967Z,26.00
2023-01-11T23:21:22.555Z,26.00
2023-01-11T23:23:49.761Z,25.99
2023-01-11T23:26:20.288Z,25.98
2023-01-11T23:28:48.384Z,25.98
2023-01-11T23:31:17.723Z,25.98
2023-01-11T23:33:45.626Z,25.93
2023-01-11T23:36:12.329Z,25.98
2023-01-11T23:38:39.282Z,25.97
2023-01-11T23:41:29.575Z,25.97
2023-01-11T23:43:57.348Z,25.96
2023-01-11T23:46:42.989Z,25.96
2023-01-11T23:49:10.484Z,25.95
2023-01-11T23:51:37.997Z,25.94
2023-01-11T23:54:06.611Z,25.92
2023-01-11T23:56:34.110Z,25.92
2023-01-11T23:59:00.774Z,25.92
